Time,TemperatureF,DewpointF,PressureIn,WindDirection,WindDirectionDegrees,WindSpeedMPH,WindSpeedGustMPH,Humidity,HourlyPrecipIn,Conditions,Clouds,dailyrainin,SoftwareType,DateUTC
2014-11-22 00:03:00,25.3,-9.1,29.15,South,186,0.0,0.0,21,0.00,,---,0.00,VWS V14.01,2014-11-22 05:03:00,
2014-11-22 00:09:00,25.3,-9.1,29.15,SSW,201,0.0,0.0,21,0.00,,---,0.00,VWS V14.01,2014-11-22 05:09:00,
2014-11-22 00:15:00,25.3,-9.1,29.15,SW,224,2.7,2.7,21,0.00,,---,0.00,VWS V14.01,2014-11-22 05:15:00,
2014-11-22 00:21:00,25.5,-9.0,29.15,SSW,213,3.1,5.4,21,0.00,,---,0.00,VWS V14.01,2014-11-22 05:21:00,
2014-11-22 00:26:00,25.5,-9.0,29.15,SW,230,2.7,3.6,21,0.00,,---,0.00,VWS V14.01,2014-11-22 05:26:00,
2014-11-22 00:31:00,25.7,-8.8,29.15,SSE,157,3.1,4.0,21,0.00,,---,0.00,VWS V14.01,2014-11-22 05:31:00,
2014-11-22 00:37:00,25.9,-8.7,29.15,South,182,3.1,3.6,21,0.00,,---,0.00,VWS V14.01,2014-11-22 05:37:00,
2014-11-22 00:43:00,26.1,-8.5,29.15,West,274,0.0,3.6,21,0.00,,---,0.00,VWS V14.01,2014-11-22 05:43:00,
2014-11-22 00:48:00,26.2,-8.4,29.15,WSW,253,0.0,0.0,21,0.00,,---,0.00,VWS V14.01,2014-11-22 05:48:00,
2014-11-22 00:54:00,26.6,-8.1,29.15,SW,220,3.6,4.0,21,0.00,,---,0.00,VWS V14.01,2014-11-22 05:54:00,
2014-11-22 00:59:00,27.1,-7.6,29.15,SE,142,5.8,5.8,21,0.00,,---,0.00,VWS V14.01,2014-11-22 05:59:00,
2014-11-22 01:04:00,27.9,-7.0,29.12,SSW,211,3.6,5.4,21,0.00,,---,0.00,VWS V14.01,2014-11-22 06:04:00,
2014-11-22 01:11:00,28.4,-6.5,29.12,SW,221,5.8,6.3,21,0.00,,---,0.00,VWS V14.01,2014-11-22 06:11:00,
2014-11-22 01:16:00,28.6,-7.4,29.12,South,187,3.1,5.4,20,0.00,,---,0.00,VWS V14.01,2014-11-22 06:16:00,
2014-11-22 01:22:00,28.8,-7.2,29.12,South,177,0.0,3.6,20,0.00,,---,0.00,VWS V14.01,2014-11-22 06:22:00,
2014-11-22 01:27:00,29.1,-6.9,29.12,SSW,210,2.7,6.3,20,0.00,,---,0.00,VWS V14.01,2014-11-22 06:27:00,
2014-11-22 01:33:00,29.5,-6.6,29.12,WSW,240,3.1,5.4,20,0.00,,---,0.00,VWS V14.01,2014-11-22 06:33:00,
2014-11-22 01:39:00,29.7,-6.5,29.12,SW,234,4.0,5.4,20,0.00,,---,0.00,VWS V14.01,2014-11-22 06:39:00,
2014-11-22 01:44:00,29.8,-6.3,29.12,WSW,248,0.0,3.6,20,0.00,,---,0.00,VWS V14.01,2014-11-22 06:44:00,
2014-11-22 01:49:00,30.0,-6.2,29.12,SSW,198,3.1,3.6,20,0.00,,---,0.00,VWS V14.01,2014-11-22 06:49:00,
2014-11-22 01:55:00,30.0,-6.2,29.12,SSW,208,2.2,4.9,20,0.00,,---,0.00,VWS V14.01,2014-11-22 06:55:00,
2014-11-22 02:01:00,30.2,-6.0,29.12,SSW,203,0.0,0.0,20,0.00,,---,0.00,VWS V14.01,2014-11-22 07:01:00,
2014-11-22 02:06:00,30.2,-6.0,29.12,SW,216,2.7,3.6,20,0.00,,---,0.00,VWS V14.01,2014-11-22 07:06:00,
2014-11-22 02:12:00,30.4,-5.9,29.12,West,278,2.7,3.6,20,0.00,,---,0.00,VWS V14.01,2014-11-22 07:12:00,
2014-11-22 02:18:00,30.6,-5.7,29.12,SSW,196,5.4,5.4,20,0.00,,---,0.00,VWS V14.01,2014-11-22 07:18:00,
2014-11-22 02:23:00,30.7,-5.6,29.12,South,178,5.4,5.4,20,0.00,,---,0.00,VWS V14.01,2014-11-22 07:23:00,
2014-11-22 02:29:00,30.9,-5.4,29.12,SSE,164,3.6,4.0,20,0.00,,---,0.00,VWS V14.01,2014-11-22 07:29:00,
2014-11-22 02:34:00,30.9,-5.4,29.12,SSW,194,0.0,4.0,20,0.00,,---,0.00,VWS V14.01,2014-11-22 07:34:00,
2014-11-22 02:39:00,30.9,-5.4,29.12,South,183,4.0,5.8,20,0.00,,---,0.00,VWS V14.01,2014-11-22 07:39:00,
2014-11-22 02:44:00,31.1,-5.3,29.12,SW,218,0.0,3.6,20,0.00,,---,0.00,VWS V14.01,2014-11-22 07:44:00,
2014-11-22 02:50:00,31.1,-5.3,29.12,SSW,203,2.7,5.4,20,0.00,,---,0.00,VWS V14.01,2014-11-22 07:50:00,
2014-11-22 02:55:00,31.1,-5.3,29.12,SW,230,5.8,5.8,20,0.00,,---,0.00,VWS V14.01,2014-11-22 07:55:00,
2014-11-22 03:00:00,31.1,-5.3,29.12,South,176,0.0,5.4,20,0.00,,---,0.00,VWS V14.01,2014-11-22 08:00:00,
2014-11-22 03:05:00,31.1,-5.3,29.12,South,191,3.6,5.4,20,0.00,,---,0.00,VWS V14.01,2014-11-22 08:05:00,
2014-11-22 03:11:00,31.1,-5.3,29.12,West,259,3.6,4.0,20,0.00,,---,0.00,VWS V14.01,2014-11-22 08:11:00,
2014-11-22 03:16:00,31.1,-5.3,29.12,WSW,237,3.6,4.0,20,0.00,,---,0.00,VWS V14.01,2014-11-22 08:16:00,
2014-11-22 03:47:00,31.1,-5.3,29.12,WSW,251,2.7,4.0,20,0.00,,---,0.00,VWS V14.01,2014-11-22 08:47:00,
2014-11-22 03:53:00,31.8,-4.7,29.09,South,183,3.6,6.3,20,0.00,,---,0.00,VWS V14.01,2014-11-22 08:53:00,
2014-11-22 03:58:00,32.2,-4.4,29.09,South,178,3.6,4.9,20,0.00,,---,0.00,VWS V14.01,2014-11-22 08:58:00,
2014-11-22 04:03:00,32.2,-4.4,29.09,SW,220,3.1,3.1,20,0.00,,---,0.00,VWS V14.01,2014-11-22 09:03:00,
2014-11-22 04:08:00,32.2,-4.4,29.09,SSW,205,2.7,6.3,20,0.00,,---,0.00,VWS V14.01,2014-11-22 09:08:00,
2014-11-22 04:14:00,32.0,-4.5,29.09,West,273,4.0,6.3,20,0.00,,---,0.00,VWS V14.01,2014-11-22 09:14:00,
2014-11-22 04:19:00,32.0,-4.5,29.09,WSW,245,4.0,4.9,20,0.00,,---,0.00,VWS V14.01,2014-11-22 09:19:00,
2014-11-22 04:25:00,32.2,-4.4,29.09,South,186,0.0,2.7,20,0.00,,---,0.00,VWS V14.01,2014-11-22 09:25:00,
2014-11-22 04:31:00,32.2,-4.4,29.09,SW,232,2.7,2.7,20,0.00,,---,0.00,VWS V14.01,2014-11-22 09:31:00,
2014-11-22 04:36:00,32.0,-4.5,29.09,SSW,207,0.0,0.0,20,0.00,,---,0.00,VWS V14.01,2014-11-22 09:36:00,
2014-11-22 04:41:00,32.0,-4.5,29.09,SSW,206,0.0,0.0,20,0.00,,---,0.00,VWS V14.01,2014-11-22 09:41:00,
2014-11-22 04:46:00,32.0,-4.5,29.09,South,183,3.1,6.7,20,0.00,,---,0.00,VWS V14.01,2014-11-22 09:46:00,
2014-11-22 04:53:00,32.2,-4.4,29.09,SSW,209,3.6,6.3,20,0.00,,---,0.00,VWS V14.01,2014-11-22 09:53:00,
2014-11-22 04:59:00,32.5,-4.1,29.09,SW,234,6.3,6.3,20,0.00,,---,0.00,VWS V14.01,2014-11-22 09:59:00,
2014-11-22 05:04:00,32.7,-3.9,29.09,South,176,3.1,4.9,20,0.00,,---,0.00,VWS V14.01,2014-11-22 10:04:00,
2014-11-22 05:10:00,32.9,-3.8,29.09,South,182,5.8,5.8,20,0.00,,---,0.00,VWS V14.01,2014-11-22 10:10:00,
2014-11-22 05:15:00,33.1,-3.6,29.09,South,187,4.0,6.3,20,0.00,,---,0.00,VWS V14.01,2014-11-22 10:15:00,